createdAt,value
2019-01-25T00:01:19.464Z,58.15
2019-01-25T00:03:22.985Z,67.57
2019-01-25T00:05:26.630Z,65.95
2019-01-25T00:07:29.849Z,69.70
2019-01-25T00:09:32.738Z,59.72
2019-01-25T00:11:36.445Z,66.80
2019-01-25T00:13:40.129Z,67.73
2019-01-25T00:15:43.794Z,61.87
2019-01-25T00:17:46.707Z,56.67
2019-01-25T00:19:50.408Z,65.70
2019-01-25T00:21:54.074Z,51.27
2019-01-25T00:23:57.821Z,54.05
2019-01-25T00:26:00.660Z,63.53
2019-01-25T00:28:04.288Z,56.75
2019-01-25T00:30:10.672Z,56.08
2019-01-25T00:32:14.337Z,51.80
2019-01-25T00:34:17.799Z,57.67
2019-01-25T00:36:20.750Z,57.88
2019-01-25T00:38:24.093Z,64.37
2019-01-25T00:40:27.106Z,58.03
2019-01-25T00:42:31.615Z,51.80
2019-01-25T00:44:35.314Z,55.63
2019-01-25T00:46:39.706Z,52.83
2019-01-25T00:48:42.741Z,53.13
2019-01-25T00:50:46.374Z,63.00
2019-01-25T00:52:49.294Z,62.13
2019-01-25T00:54:53.312Z,59.83
2019-01-25T00:56:57.655Z,50.95
2019-01-25T00:59:00.594Z,51.93
2019-01-25T01:01:05.014Z,55.97
2019-01-25T01:03:08.131Z,52.45
2019-01-25T01:05:11.831Z,45.70
2019-01-25T01:07:16.166Z,54.65
2019-01-25T01:09:19.082Z,52.58
2019-01-25T01:11:21.963Z,61.13
2019-01-25T01:13:24.970Z,54.78
2019-01-25T01:15:28.619Z,56.97
2019-01-25T01:17:32.573Z,62.00
2019-01-25T01:19:36.279Z,49.00
2019-01-25T01:21:39.162Z,58.50
2019-01-25T01:23:42.847Z,59.15
2019-01-25T01:25:45.835Z,60.88
2019-01-25T01:27:49.304Z,72.15
2019-01-25T01:29:52.311Z,55.53
2019-01-25T01:31:55.204Z,53.70
2019-01-25T01:33:58.862Z,55.95
2019-01-25T01:36:02.416Z,54.85
2019-01-25T01:38:06.042Z,61.50
2019-01-25T01:40:12.332Z,49.50
2019-01-25T01:42:15.214Z,57.20
2019-01-25T01:44:18.116Z,65.60
2019-01-25T01:46:21.770Z,57.47
2019-01-25T01:48:25.098Z,56.30
2019-01-25T01:50:29.103Z,58.97
2019-01-25T01:52:33.433Z,61.15
2019-01-25T01:54:37.105Z,55.38
2019-01-25T01:56:39.986Z,60.50
2019-01-25T01:58:42.884Z,51.83
2019-01-25T02:00:45.839Z,59.10
2019-01-25T02:02:48.739Z,53.60
2019-01-25T02:04:53.186Z,55.35
2019-01-25T02:06:56.304Z,54.15
2019-01-25T02:08:59.810Z,58.60
2019-01-25T02:11:02.699Z,50.30
2019-01-25T02:13:06.406Z,56.45
2019-01-25T02:15:09.291Z,52.90
2019-01-25T02:17:12.183Z,67.43
2019-01-25T02:19:15.091Z,56.35
2019-01-25T02:21:18.931Z,52.33
2019-01-25T02:23:21.816Z,59.28
2019-01-25T02:25:25.442Z,66.68
2019-01-25T02:27:28.419Z,63.67
2019-01-25T02:29:31.339Z,51.60
2019-01-25T02:31:35.004Z,52.33
2019-01-25T02:33:40.111Z,52.35
2019-01-25T02:35:43.010Z,47.80
2019-01-25T02:37:45.900Z,49.67
2019-01-25T02:39:49.600Z,61.95
2019-01-25T02:41:53.421Z,60.53
2019-01-25T02:43:57.078Z,50.45
2019-01-25T02:46:00.193Z,46.03
2019-01-25T02:48:03.258Z,54.38
2019-01-25T02:50:15.697Z,46.08
2019-01-25T02:52:19.356Z,53.10
2019-01-25T02:54:22.458Z,65.55
2019-01-25T02:56:25.442Z,58.10
2019-01-25T02:58:28.343Z,51.35
2019-01-25T03:00:32.134Z,50.80
2019-01-25T03:02:36.038Z,52.60
2019-01-25T03:04:39.767Z,52.67
2019-01-25T03:06:43.427Z,58.10
2019-01-25T03:08:47.896Z,50.03
2019-01-25T03:10:50.840Z,51.23
2019-01-25T03:12:54.511Z,56.55
2019-01-25T03:14:57.415Z,50.67
2019-01-25T03:17:00.283Z,45.97
2019-01-25T03:19:03.299Z,50.47
2019-01-25T03:21:06.259Z,45.92
2019-01-25T03:23:09.148Z,53.50
2019-01-25T03:25:12.739Z,55.85
2019-01-25T03:27:15.726Z,64.93
2019-01-25T03:29:18.636Z,47.15
2019-01-25T03:31:22.808Z,58.30
2019-01-25T03:33:25.795Z,49.90
2019-01-25T03:35:29.395Z,46.30
2019-01-25T03:37:32.391Z,50.23
2019-01-25T03:39:36.147Z,56.03
2019-01-25T03:41:39.069Z,48.60
2019-01-25T03:43:42.299Z,55.12
2019-01-25T03:45:45.184Z,49.13
2019-01-25T03:47:48.194Z,47.20
2019-01-25T03:49:51.198Z,56.15
2019-01-25T03:51:54.126Z,51.30
2019-01-25T03:53:57.046Z,50.45
2019-01-25T03:56:00.459Z,59.55
2019-01-25T03:58:04.115Z,53.50
2019-01-25T04:00:10.991Z,45.45
2019-01-25T04:02:14.115Z,57.60
2019-01-25T04:04:16.989Z,59.20
2019-01-25T04:06:19.871Z,57.55
2019-01-25T04:08:22.911Z,43.45
2019-01-25T04:10:26.658Z,53.90
2019-01-25T04:12:29.543Z,61.08
2019-01-25T04:14:33.238Z,57.08
2019-01-25T04:16:36.230Z,53.77
2019-01-25T04:18:41.336Z,51.63
2019-01-25T04:20:44.747Z,54.22
2019-01-25T04:22:47.634Z,49.80
2019-01-25T04:24:50.655Z,49.00
2019-01-25T04:26:54.383Z,50.10
2019-01-25T04:28:57.264Z,54.15
2019-01-25T04:31:00.300Z,52.03
2019-01-25T04:33:04.102Z,59.53
2019-01-25T04:35:06.967Z,50.90
2019-01-25T04:37:10.676Z,52.28
2019-01-25T04:39:14.351Z,54.13
2019-01-25T04:41:17.235Z,52.78
2019-01-25T04:43:20.226Z,58.33
2019-01-25T04:45:23.332Z,59.03
2019-01-25T04:47:26.194Z,53.75
2019-01-25T04:49:29.320Z,51.13
2019-01-25T04:51:32.363Z,58.80
2019-01-25T04:53:35.871Z,64.03
2019-01-25T04:55:39.561Z,44.42
2019-01-25T04:57:42.575Z,56.47
2019-01-25T04:59:46.864Z,60.80
2019-01-25T05:01:52.088Z,61.10
2019-01-25T05:03:54.059Z,52.53
2019-01-25T05:05:57.856Z,54.35
2019-01-25T05:08:01.514Z,59.05
2019-01-25T05:10:04.427Z,55.33
2019-01-25T05:12:07.335Z,54.25
2019-01-25T05:14:10.304Z,45.97
2019-01-25T05:16:13.415Z,54.30
2019-01-25T05:18:17.316Z,60.30
2019-01-25T05:20:21.000Z,56.53
2019-01-25T05:22:24.676Z,52.75
2019-01-25T05:24:27.566Z,72.43
2019-01-25T05:26:30.443Z,53.42
2019-01-25T05:28:33.439Z,58.85
2019-01-25T05:30:36.326Z,61.88
2019-01-25T05:32:39.974Z,59.35
2019-01-25T05:34:42.995Z,64.60
2019-01-25T05:36:45.994Z,51.90
2019-01-25T05:38:49.653Z,57.05
2019-01-25T05:40:52.660Z,50.90
2019-01-25T05:42:55.548Z,55.35
2019-01-25T05:44:58.499Z,49.50
2019-01-25T05:47:01.414Z,66.82
2019-01-25T05:49:04.801Z,59.03
2019-01-25T05:51:07.681Z,59.67
2019-01-25T05:53:11.981Z,64.30
2019-01-25T05:55:15.731Z,58.15
2019-01-25T05:57:19.815Z,52.42
2019-01-25T05:59:24.077Z,56.00
2019-01-25T06:01:27.114Z,57.37
2019-01-25T06:03:29.978Z,64.70
2019-01-25T06:05:32.969Z,63.83
2019-01-25T06:07:36.642Z,51.25
2019-01-25T06:09:39.555Z,62.45
2019-01-25T06:11:42.522Z,62.55
2019-01-25T06:13:45.406Z,59.55
2019-01-25T06:15:48.398Z,59.77
2019-01-25T06:17:51.375Z,62.33
2019-01-25T06:19:55.252Z,65.43
2019-01-25T06:21:58.127Z,58.95
2019-01-25T06:24:02.282Z,57.00
2019-01-25T06:26:05.927Z,51.75
2019-01-25T06:28:08.847Z,50.10
2019-01-25T06:30:11.853Z,53.30
2019-01-25T06:32:16.002Z,66.00
2019-01-25T06:34:18.883Z,52.83
2019-01-25T06:36:22.314Z,65.10
2019-01-25T06:38:25.719Z,55.12
2019-01-25T06:40:29.406Z,62.43
2019-01-25T06:42:32.323Z,50.88
2019-01-25T06:44:35.278Z,57.62
2019-01-25T06:46:38.253Z,62.93
2019-01-25T06:48:41.344Z,54.88
2019-01-25T06:50:44.257Z,58.63
2019-01-25T06:52:47.219Z,61.35
2019-01-25T06:54:51.030Z,56.63
2019-01-25T06:56:54.677Z,58.72
2019-01-25T06:58:58.014Z,49.30
2019-01-25T07:01:17.454Z,51.92
2019-01-25T07:03:21.231Z,50.57
2019-01-25T07:05:24.802Z,51.37
2019-01-25T07:07:29.047Z,58.92
2019-01-25T07:09:32.562Z,57.53
2019-01-25T07:11:41.877Z,54.97
2019-01-25T07:13:39.873Z,62.30
2019-01-25T07:15:42.762Z,58.97
2019-01-25T07:17:45.718Z,60.92
2019-01-25T07:19:48.625Z,57.90
2019-01-25T07:21:51.599Z,60.65
2019-01-25T07:23:54.578Z,60.85
2019-01-25T07:25:57.498Z,61.10
2019-01-25T07:28:01.162Z,48.47
2019-01-25T07:30:04.058Z,68.90
2019-01-25T07:32:07.951Z,60.70
2019-01-25T07:34:11.411Z,58.57
2019-01-25T07:36:15.435Z,54.20
2019-01-25T07:38:18.767Z,52.45
2019-01-25T07:40:21.628Z,45.88
2019-01-25T07:42:25.852Z,69.62
2019-01-25T07:44:29.533Z,60.15
2019-01-25T07:46:32.411Z,58.97
2019-01-25T07:48:35.598Z,65.68
2019-01-25T07:50:38.282Z,64.90
2019-01-25T07:52:41.942Z,57.88
2019-01-25T07:54:45.135Z,61.65
2019-01-25T07:56:48.488Z,67.73
2019-01-25T07:58:52.132Z,60.87
2019-01-25T08:00:55.063Z,57.47
2019-01-25T08:02:58.959Z,66.87
2019-01-25T08:05:02.610Z,55.60
2019-01-25T08:07:06.012Z,78.35
2019-01-25T08:09:08.918Z,68.07
2019-01-25T08:11:12.593Z,53.78
2019-01-25T08:13:16.017Z,60.55
2019-01-25T08:15:20.729Z,61.95
2019-01-25T08:17:23.611Z,54.78
2019-01-25T08:19:26.598Z,79.07
2019-01-25T08:21:29.689Z,59.58
2019-01-25T08:23:32.586Z,58.22
2019-01-25T08:25:36.242Z,70.70
2019-01-25T08:27:39.189Z,60.73
2019-01-25T08:29:43.533Z,58.83
2019-01-25T08:31:46.605Z,59.47
2019-01-25T08:33:50.145Z,60.50
2019-01-25T08:35:53.154Z,54.50
2019-01-25T08:37:56.822Z,58.47
2019-01-25T08:39:59.930Z,56.55
2019-01-25T08:42:02.946Z,55.30
2019-01-25T08:44:06.593Z,57.50
2019-01-25T08:46:09.483Z,61.57
2019-01-25T08:48:12.419Z,61.80
2019-01-25T08:50:15.514Z,73.53
2019-01-25T08:52:19.665Z,67.93
2019-01-25T08:54:22.548Z,66.95
2019-01-25T08:56:26.283Z,78.87
2019-01-25T08:58:29.333Z,57.25
2019-01-25T09:00:32.991Z,66.45
2019-01-25T09:02:35.855Z,63.22
2019-01-25T09:04:38.911Z,67.10
2019-01-25T09:06:43.164Z,62.55
2019-01-25T09:08:46.411Z,74.40
2019-01-25T09:10:50.075Z,67.90
2019-01-25T09:12:53.061Z,69.50
2019-01-25T09:14:57.577Z,58.60
2019-01-25T09:17:00.675Z,68.32
2019-01-25T09:19:04.363Z,61.55
2019-01-25T09:21:07.250Z,60.97
2019-01-25T09:23:10.941Z,75.28
2019-01-25T09:25:13.930Z,65.47
2019-01-25T09:27:17.249Z,60.03
2019-01-25T09:29:20.302Z,66.15
2019-01-25T09:31:23.282Z,73.40
2019-01-25T09:33:26.271Z,72.10
2019-01-25T09:35:29.357Z,70.27
2019-01-25T09:37:32.327Z,77.75
2019-01-25T09:39:35.215Z,68.82
2019-01-25T09:41:39.513Z,55.38
2019-01-25T09:43:42.166Z,69.87
2019-01-25T09:45:45.117Z,62.38
2019-01-25T09:47:48.787Z,69.22
2019-01-25T09:49:54.218Z,71.78
2019-01-25T09:51:57.910Z,80.30
2019-01-25T09:54:00.919Z,75.45
2019-01-25T09:56:04.640Z,63.35
2019-01-25T09:58:08.311Z,64.35
2019-01-25T10:00:16.726Z,77.27
2019-01-25T10:02:20.387Z,65.65
2019-01-25T10:04:23.406Z,64.37
2019-01-25T10:06:26.322Z,67.67
2019-01-25T10:08:30.010Z,61.83
2019-01-25T10:10:33.174Z,63.47
2019-01-25T10:12:43.076Z,70.95
2019-01-25T10:14:39.018Z,73.97
2019-01-25T10:16:41.945Z,69.53
2019-01-25T10:18:46.034Z,68.60
2019-01-25T10:20:49.690Z,80.77
2019-01-25T10:22:52.643Z,65.32
2019-01-25T10:24:56.287Z,62.70
2019-01-25T10:26:59.204Z,64.07
2019-01-25T10:29:02.871Z,72.93
2019-01-25T10:31:05.891Z,71.10
2019-01-25T10:33:09.548Z,59.70
2019-01-25T10:35:13.104Z,65.20
2019-01-25T10:37:16.773Z,62.30
2019-01-25T10:39:19.785Z,59.50
2019-01-25T10:41:23.450Z,59.25
2019-01-25T10:43:26.451Z,66.35
2019-01-25T10:45:39.895Z,65.00
2019-01-25T10:47:44.375Z,60.53
2019-01-25T10:49:47.473Z,74.20
2019-01-25T10:51:50.355Z,65.13
2019-01-25T10:53:53.302Z,70.45
2019-01-25T10:55:56.619Z,63.58
2019-01-25T10:57:59.559Z,62.65
2019-01-25T11:00:02.534Z,67.03
2019-01-25T11:02:06.112Z,68.27
2019-01-25T11:04:11.653Z,68.50
2019-01-25T11:06:12.918Z,70.72
2019-01-25T11:08:15.932Z,76.20
2019-01-25T11:10:18.968Z,86.65
2019-01-25T11:12:23.467Z,75.65
2019-01-25T11:14:27.338Z,75.20
2019-01-25T11:16:30.245Z,72.47
2019-01-25T11:18:33.143Z,73.72
2019-01-25T11:20:36.922Z,62.17
2019-01-25T11:22:41.089Z,63.97
2019-01-25T11:24:44.791Z,76.97
2019-01-25T11:26:47.953Z,73.82
2019-01-25T11:28:51.592Z,68.18
2019-01-25T11:30:54.504Z,63.80
2019-01-25T11:32:57.582Z,67.57
2019-01-25T11:35:01.385Z,68.47
2019-01-25T11:37:04.250Z,63.50
2019-01-25T11:39:07.162Z,73.10
2019-01-25T11:41:10.988Z,69.95
2019-01-25T11:43:15.362Z,58.35
2019-01-25T11:45:18.286Z,79.78
2019-01-25T11:47:21.271Z,64.35
2019-01-25T11:49:25.258Z,68.90
2019-01-25T11:51:28.936Z,66.22
2019-01-25T11:53:33.331Z,72.45
2019-01-25T11:55:36.234Z,71.80
2019-01-25T11:57:39.150Z,67.85
2019-01-25T11:59:43.018Z,69.93
2019-01-25T12:01:45.907Z,74.45
2019-01-25T12:03:49.720Z,66.97
2019-01-25T12:05:53.956Z,70.53
2019-01-25T12:07:56.839Z,71.62
2019-01-25T12:10:00.339Z,68.13
2019-01-25T12:12:03.861Z,69.93
2019-01-25T12:14:06.748Z,60.53
2019-01-25T12:16:09.655Z,76.20
2019-01-25T12:18:13.374Z,65.90
2019-01-25T12:20:18.704Z,57.47
2019-01-25T12:22:22.380Z,65.65
2019-01-25T12:24:26.440Z,68.00
2019-01-25T12:26:28.179Z,74.22
2019-01-25T12:28:32.259Z,68.82
2019-01-25T12:30:37.666Z,69.63
2019-01-25T12:32:39.180Z,72.15
2019-01-25T12:34:42.834Z,86.43
2019-01-25T12:36:45.721Z,69.25
2019-01-25T12:38:48.602Z,66.80
2019-01-25T12:40:51.590Z,63.53
2019-01-25T12:42:54.491Z,76.62
2019-01-25T12:44:57.506Z,71.53
2019-01-25T12:47:00.819Z,75.75
2019-01-25T12:49:03.704Z,63.83
2019-01-25T12:51:06.599Z,67.30
2019-01-25T12:53:11.025Z,76.57
2019-01-25T12:55:13.882Z,58.65
2019-01-25T12:57:17.495Z,75.12
2019-01-25T12:59:20.402Z,60.03
2019-01-25T13:01:24.766Z,59.27
2019-01-25T13:03:27.652Z,68.17
2019-01-25T13:05:31.289Z,76.12
2019-01-25T13:07:34.955Z,65.62
2019-01-25T13:09:37.841Z,56.85
2019-01-25T13:11:40.785Z,72.18
2019-01-25T13:13:43.773Z,75.45
2019-01-25T13:15:46.727Z,66.45
2019-01-25T13:17:50.314Z,70.23
2019-01-25T13:19:54.686Z,55.08
2019-01-25T13:21:57.570Z,63.33
2019-01-25T13:24:00.597Z,58.95
2019-01-25T13:26:04.260Z,56.65
2019-01-25T13:28:07.134Z,56.53
2019-01-25T13:30:13.723Z,68.12
2019-01-25T13:32:16.607Z,63.08
2019-01-25T13:34:19.517Z,56.67
2019-01-25T13:36:23.175Z,54.75
2019-01-25T13:38:26.155Z,77.30
2019-01-25T13:40:29.754Z,60.50
2019-01-25T13:42:32.855Z,64.97
2019-01-25T13:44:35.731Z,62.27
2019-01-25T13:46:38.639Z,61.07
2019-01-25T13:48:42.426Z,56.37
2019-01-25T13:50:46.131Z,60.25
2019-01-25T13:52:50.468Z,63.92
2019-01-25T13:54:54.127Z,59.78
2019-01-25T13:56:57.127Z,76.95
2019-01-25T13:59:00.791Z,61.03
2019-01-25T14:01:03.700Z,62.43
2019-01-25T14:03:06.583Z,51.03
2019-01-25T14:05:10.296Z,101.77
2019-01-25T14:07:14.388Z,72.30
2019-01-25T14:09:17.334Z,57.78
2019-01-25T14:11:20.234Z,66.82
2019-01-25T14:13:23.248Z,53.65
2019-01-25T14:15:27.138Z,53.58
2019-01-25T14:17:30.135Z,56.33
2019-01-25T14:19:33.098Z,64.80
2019-01-25T14:21:35.997Z,55.12
2019-01-25T14:23:38.886Z,60.50
2019-01-25T14:25:43.075Z,54.53
2019-01-25T14:27:45.958Z,55.08
2019-01-25T14:29:48.838Z,56.47
2019-01-25T14:31:52.535Z,55.70
2019-01-25T14:33:55.411Z,50.43
2019-01-25T14:35:58.412Z,54.37
2019-01-25T14:38:02.303Z,51.23
2019-01-25T14:40:05.187Z,53.17
2019-01-25T14:42:08.270Z,44.73
2019-01-25T14:44:11.234Z,46.83
2019-01-25T14:46:14.151Z,49.50
2019-01-25T14:48:17.791Z,65.35
2019-01-25T14:50:22.570Z,52.28
2019-01-25T14:52:25.463Z,43.10
2019-01-25T14:54:29.515Z,45.15
2019-01-25T14:56:32.862Z,48.85
2019-01-25T14:58:36.542Z,44.05
2019-01-25T15:00:39.439Z,39.40
2019-01-25T15:02:43.107Z,37.17
2019-01-25T15:04:46.021Z,41.22
2019-01-25T15:06:48.991Z,53.22
2019-01-25T15:08:51.896Z,38.85
2019-01-25T15:10:55.575Z,44.70
2019-01-25T15:13:00.039Z,37.42
2019-01-25T15:15:02.878Z,43.22
2019-01-25T15:17:06.675Z,48.10
2019-01-25T15:19:09.563Z,44.90
2019-01-25T15:21:13.462Z,38.47
2019-01-25T15:23:17.122Z,52.47
2019-01-25T15:25:20.003Z,39.80
2019-01-25T15:27:22.922Z,41.20
2019-01-25T15:29:26.618Z,44.50
2019-01-25T15:31:29.915Z,38.97
2019-01-25T15:33:33.594Z,41.13
2019-01-25T15:35:36.475Z,41.77
2019-01-25T15:37:39.575Z,36.00
2019-01-25T15:39:42.854Z,34.97
2019-01-25T15:41:45.752Z,45.73
2019-01-25T15:43:49.503Z,43.55
2019-01-25T15:45:52.387Z,46.17
2019-01-25T15:47:55.267Z,34.22
2019-01-25T15:49:58.198Z,36.80
2019-01-25T15:52:02.807Z,53.47
2019-01-25T15:54:05.694Z,36.40
2019-01-25T15:56:10.043Z,34.58
2019-01-25T15:58:13.707Z,38.15
2019-01-25T16:00:17.499Z,38.15
2019-01-25T16:02:20.399Z,28.85
2019-01-25T16:04:23.466Z,33.30
2019-01-25T16:06:27.958Z,38.05
2019-01-25T16:08:30.862Z,26.60
2019-01-25T16:10:33.867Z,38.42
2019-01-25T16:12:37.511Z,27.23
2019-01-25T16:14:40.631Z,29.23
2019-01-25T16:16:43.610Z,28.40
2019-01-25T16:18:46.506Z,23.02
2019-01-25T16:20:50.175Z,31.80
2019-01-25T16:22:53.095Z,23.40
2019-01-25T16:24:56.752Z,26.50
2019-01-25T16:27:00.234Z,26.90
2019-01-25T16:29:03.395Z,33.50
2019-01-25T16:31:07.034Z,25.93
2019-01-25T16:33:09.928Z,23.43
2019-01-25T16:35:12.886Z,28.87
2019-01-25T16:37:15.806Z,26.73
2019-01-25T16:39:19.510Z,26.70
2019-01-25T16:41:23.826Z,27.35
2019-01-25T16:43:27.557Z,21.02
2019-01-25T16:45:34.775Z,23.62
2019-01-25T16:47:37.683Z,29.50
2019-01-25T16:49:40.561Z,31.55
2019-01-25T16:51:43.439Z,23.95
2019-01-25T16:53:46.431Z,26.75
2019-01-25T16:55:49.330Z,23.58
2019-01-25T16:57:52.981Z,25.37
2019-01-25T16:59:55.886Z,26.00
2019-01-25T17:01:58.767Z,23.73
2019-01-25T17:04:01.654Z,33.80
2019-01-25T17:06:04.631Z,25.23
2019-01-25T17:08:07.515Z,28.42
2019-01-25T17:10:10.926Z,29.15
2019-01-25T17:12:15.387Z,34.07
2019-01-25T17:14:18.308Z,37.25
2019-01-25T17:16:21.957Z,28.95
2019-01-25T17:18:24.988Z,42.77
2019-01-25T17:20:28.108Z,44.85
2019-01-25T17:22:31.774Z,41.43
2019-01-25T17:24:34.764Z,40.45
2019-01-25T17:26:38.415Z,42.45
2019-01-25T17:28:41.856Z,40.05
2019-01-25T17:30:45.539Z,39.72
2019-01-25T17:32:48.423Z,50.53
2019-01-25T17:34:51.294Z,41.72
2019-01-25T17:36:54.295Z,43.87
2019-01-25T17:38:57.174Z,41.20
2019-01-25T17:41:00.058Z,41.80
2019-01-25T17:43:02.974Z,48.80
2019-01-25T17:45:05.864Z,43.33
2019-01-25T17:47:09.621Z,42.40
2019-01-25T17:49:13.520Z,44.83
2019-01-25T17:51:16.522Z,38.78
2019-01-25T17:53:20.178Z,48.42
2019-01-25T17:55:23.295Z,43.03
2019-01-25T17:57:26.275Z,40.38
2019-01-25T17:59:29.266Z,43.08
2019-01-25T18:01:33.365Z,41.70
2019-01-25T18:03:36.350Z,47.63
2019-01-25T18:05:39.231Z,53.77
2019-01-25T18:07:42.147Z,43.87
2019-01-25T18:09:45.845Z,47.83
2019-01-25T18:11:49.527Z,40.28
2019-01-25T18:13:53.315Z,40.25
2019-01-25T18:15:56.230Z,35.33
2019-01-25T18:17:59.930Z,46.17
2019-01-25T18:20:03.698Z,52.90
2019-01-25T18:22:08.103Z,39.03
2019-01-25T18:24:11.508Z,59.70
2019-01-25T18:26:14.523Z,42.00
2019-01-25T18:28:17.472Z,50.67
2019-01-25T18:30:37.284Z,45.92
2019-01-25T18:32:41.055Z,50.23
2019-01-25T18:34:43.965Z,41.58
2019-01-25T18:36:46.955Z,44.00
2019-01-25T18:38:50.728Z,49.22
2019-01-25T18:40:54.391Z,42.65
2019-01-25T18:42:57.274Z,43.63
2019-01-25T18:45:00.278Z,47.60
2019-01-25T18:47:03.158Z,46.95
2019-01-25T18:49:06.250Z,50.00
2019-01-25T18:51:09.171Z,40.65
2019-01-25T18:53:12.054Z,49.30
2019-01-25T18:55:15.670Z,38.13
2019-01-25T18:57:18.591Z,43.22
2019-01-25T18:59:21.607Z,43.10
2019-01-25T19:01:25.635Z,52.95
2019-01-25T19:03:28.555Z,46.58
2019-01-25T19:05:31.446Z,49.72
2019-01-25T19:07:35.434Z,41.75
2019-01-25T19:09:38.606Z,46.80
2019-01-25T19:11:41.438Z,48.53
2019-01-25T19:13:45.083Z,49.97
2019-01-25T19:15:48.328Z,45.10
2019-01-25T19:17:52.083Z,39.90
2019-01-25T19:19:55.059Z,48.37
2019-01-25T19:21:58.807Z,41.85
2019-01-25T19:24:02.459Z,42.75
2019-01-25T19:26:05.372Z,56.40
2019-01-25T19:28:08.454Z,48.00
2019-01-25T19:30:20.457Z,47.55
2019-01-25T19:32:23.194Z,40.80
2019-01-25T19:34:26.098Z,43.20
2019-01-25T19:36:29.022Z,46.42
2019-01-25T19:38:32.679Z,35.13
2019-01-25T19:40:35.591Z,41.75
2019-01-25T19:42:39.258Z,40.10
2019-01-25T19:44:42.139Z,43.30
2019-01-25T19:46:45.122Z,40.08
2019-01-25T19:48:48.008Z,36.47
2019-01-25T19:50:50.903Z,36.85
2019-01-25T19:52:54.660Z,25.15
2019-01-25T19:54:58.531Z,39.23
2019-01-25T19:57:02.527Z,42.63
2019-01-25T19:59:05.728Z,38.40
2019-01-25T20:01:09.381Z,41.63
2019-01-25T20:03:12.262Z,36.60
2019-01-25T20:05:15.162Z,40.20
2019-01-25T20:07:18.072Z,31.17
2019-01-25T20:09:21.021Z,34.15
2019-01-25T20:11:24.775Z,34.85
2019-01-25T20:13:27.733Z,41.15
2019-01-25T20:15:31.367Z,34.47
2019-01-25T20:17:35.047Z,37.50
2019-01-25T20:19:38.118Z,36.60
2019-01-25T20:21:41.862Z,36.10
2019-01-25T20:23:45.379Z,39.40
2019-01-25T20:25:48.266Z,48.33
2019-01-25T20:27:51.183Z,37.40
2019-01-25T20:29:55.347Z,37.93
2019-01-25T20:31:58.347Z,47.87
2019-01-25T20:34:02.395Z,37.80
2019-01-25T20:36:06.870Z,36.85
2019-01-25T20:38:10.526Z,34.07
2019-01-25T20:40:13.657Z,35.50
2019-01-25T20:42:16.848Z,40.65
2019-01-25T20:44:20.346Z,36.60
2019-01-25T20:46:23.831Z,49.05
2019-01-25T20:48:27.167Z,39.03
2019-01-25T20:50:35.118Z,39.40
2019-01-25T20:52:43.704Z,36.40
2019-01-25T20:54:49.763Z,37.67
2019-01-25T20:56:52.714Z,36.27
2019-01-25T20:58:55.875Z,33.00
2019-01-25T21:01:00.002Z,37.90
2019-01-25T21:03:04.973Z,39.25
2019-01-25T21:05:10.369Z,37.67
2019-01-25T21:07:14.273Z,39.00
2019-01-25T21:09:17.987Z,44.87
2019-01-25T21:11:20.911Z,40.00
2019-01-25T21:13:24.041Z,39.10
2019-01-25T21:15:34.787Z,42.60
2019-01-25T21:17:30.587Z,37.45
2019-01-25T21:19:33.557Z,32.17
2019-01-25T21:21:36.467Z,32.72
2019-01-25T21:23:40.203Z,39.30
2019-01-25T21:25:43.113Z,44.60
2019-01-25T21:27:46.069Z,36.75
2019-01-25T21:29:48.964Z,36.08
2019-01-25T21:31:51.950Z,44.83
2019-01-25T21:33:54.931Z,35.60
2019-01-25T21:35:57.850Z,35.08
2019-01-25T21:38:00.954Z,44.37
2019-01-25T21:40:10.096Z,39.42
2019-01-25T21:42:13.007Z,33.37
2019-01-25T21:44:15.986Z,33.90
2019-01-25T21:46:19.915Z,29.80
2019-01-25T21:48:22.827Z,32.75
2019-01-25T21:50:27.389Z,48.40
2019-01-25T21:52:30.327Z,32.20
2019-01-25T21:54:33.177Z,27.85
2019-01-25T21:56:36.091Z,54.25
2019-01-25T21:58:40.642Z,33.77
2019-01-25T22:00:43.531Z,31.10
2019-01-25T22:02:46.771Z,28.65
2019-01-25T22:04:50.440Z,35.13
2019-01-25T22:06:53.360Z,37.22
2019-01-25T22:08:56.434Z,34.17
2019-01-25T22:10:59.326Z,32.40
2019-01-25T22:13:03.048Z,43.63
2019-01-25T22:15:06.003Z,42.27
2019-01-25T22:17:09.710Z,33.92
2019-01-25T22:19:13.407Z,29.27
2019-01-25T22:21:17.209Z,39.63
2019-01-25T22:23:20.347Z,37.72
2019-01-25T22:25:23.257Z,40.57
2019-01-25T22:27:26.260Z,30.10
2019-01-25T22:29:29.242Z,30.13
2019-01-25T22:31:33.068Z,37.77
2019-01-25T22:33:36.743Z,31.58
2019-01-25T22:35:39.626Z,28.67
2019-01-25T22:37:43.330Z,33.72
2019-01-25T22:39:47.001Z,36.60
2019-01-25T22:41:49.913Z,28.10
2019-01-25T22:43:53.581Z,34.50
2019-01-25T22:45:58.643Z,41.67
2019-01-25T22:47:59.391Z,32.15
2019-01-25T22:50:02.296Z,34.97
2019-01-25T22:52:05.318Z,31.48
2019-01-25T22:54:08.269Z,33.63
2019-01-25T22:56:11.283Z,36.25
2019-01-25T22:58:14.183Z,31.92
2019-01-25T23:00:22.838Z,30.60
2019-01-25T23:02:26.644Z,29.50
2019-01-25T23:04:29.667Z,29.37
2019-01-25T23:06:33.655Z,23.95
2019-01-25T23:08:36.549Z,30.83
2019-01-25T23:10:39.601Z,26.63
2019-01-25T23:12:42.476Z,33.93
2019-01-25T23:14:45.507Z,33.63
2019-01-25T23:16:50.169Z,35.70
2019-01-25T23:18:53.480Z,32.10
2019-01-25T23:20:56.619Z,40.35
2019-01-25T23:23:00.698Z,30.62
2019-01-25T23:25:03.591Z,30.70
2019-01-25T23:27:06.489Z,31.13
2019-01-25T23:29:10.174Z,26.60
2019-01-25T23:31:13.070Z,27.13
2019-01-25T23:33:16.728Z,27.45
2019-01-25T23:35:19.702Z,35.23
2019-01-25T23:37:22.725Z,27.80
2019-01-25T23:39:25.702Z,24.65
2019-01-25T23:41:28.706Z,33.67
2019-01-25T23:43:32.362Z,31.17
2019-01-25T23:45:36.086Z,24.77
2019-01-25T23:47:39.162Z,30.50
2019-01-25T23:49:42.055Z,27.17
2019-01-25T23:51:44.935Z,28.02
2019-01-25T23:53:48.096Z,28.35
2019-01-25T23:55:51.014Z,23.77
2019-01-25T23:57:54.670Z,29.17
2019-01-25T23:59:57.586Z,31.65
